Time;durP1;ratioP1;P1;durP2;ratioP2;P2;SDS_P1;SDS_P2;PMS_P1;PMS_P2;Temp;Humidity;BMP_temperature;BMP_pressure;BME280_temperature;BME280_humidity;BME280_pressure;Samples;Min_cycle;Max_cycle;Signal;HPM_P1;HPM_P2
2023/08/16 00:00:32;;;;;;;22.05;19.55;;;;;;;28.68;50.51;101257.16;6069228;23;20021;-82
2023/08/16 00:03:04;;;;;;;21.23;18.95;;;;;;;28.26;50.83;101203.53;6145444;23;20025;-82
2023/08/16 00:05:36;;;;;;;21.65;18.95;;;;;;;28.31;50.77;101192.72;6165552;23;20303;-79
2023/08/16 00:08:05;;;;;;;22.90;20.48;;;;;;;27.75;51.11;101114.22;6136587;23;20848;-81
2023/08/16 00:10:52;;;;;;;24.95;20.80;;;;;;;28.66;51.18;101271.03;6134901;23;20021;-79
2023/08/16 00:13:23;;;;;;;22.85;20.52;;;;;;;28.52;51.00;101259.56;6100150;23;20029;-81
2023/08/16 00:15:58;;;;;;;23.08;20.55;;;;;;;28.36;51.22;101240.31;6095174;23;20025;-80
2023/08/16 00:18:24;;;;;;;25.65;21.67;;;;;;;28.42;51.21;101269.38;6116738;23;20021;-80
2023/08/16 00:20:51;;;;;;;23.60;21.10;;;;;;;27.81;51.48;101179.56;6122085;23;20067;-81
2023/08/16 00:23:18;;;;;;;24.48;20.90;;;;;;;28.23;51.58;101255.88;6138576;23;20166;-79
2023/08/16 00:25:49;;;;;;;25.48;23.05;;;;;;;27.96;51.61;101239.13;6096497;23;20092;-80
2023/08/16 00:28:16;;;;;;;25.55;22.55;;;;;;;27.86;51.51;101231.53;6157053;23;20024;-82
2023/08/16 00:30:42;;;;;;;23.85;21.33;;;;;;;28.04;52.05;101251.63;6133218;23;20056;-80
2023/08/16 00:33:11;;;;;;;28.45;21.65;;;;;;;27.85;51.91;101238.06;6099064;23;20306;-80
2023/08/16 00:35:39;;;;;;;25.38;20.58;;;;;;;27.99;52.16;101271.44;6144324;23;20032;-83
2023/08/16 00:38:06;;;;;;;26.77;21.58;;;;;;;27.97;52.09;101257.19;6144080;23;20473;-81
2023/08/16 00:40:33;;;;;;;30.88;22.45;;;;;;;27.96;52.23;101260.13;6111074;23;20051;-81
2023/08/16 00:43:03;;;;;;;25.45;21.38;;;;;;;27.98;52.40;101269.75;6130699;23;20029;-80
2023/08/16 00:45:30;;;;;;;25.92;23.20;;;;;;;27.89;52.25;101265.69;6140668;23;20415;-82
2023/08/16 00:47:57;;;;;;;28.88;23.20;;;;;;;27.74;52.41;101238.84;6140404;23;20450;-81
2023/08/16 00:50:24;;;;;;;25.90;21.85;;;;;;;27.89;52.72;101277.47;6152393;23;20372;-81
2023/08/16 00:52:56;;;;;;;24.63;21.08;;;;;;;27.88;53.03;101275.78;6136978;23;20472;-81
2023/08/16 00:55:26;;;;;;;24.13;21.20;;;;;;;27.55;52.85;101218.19;6148473;23;20032;-80
2023/08/16 00:57:53;;;;;;;27.10;21.63;;;;;;;27.83;52.92;101267.47;6133044;23;20025;-81
2023/08/16 01:00:20;;;;;;;25.63;22.90;;;;;;;27.75;52.61;101262.34;6113602;23;20369;-80
2023/08/16 01:02:47;;;;;;;31.85;23.63;;;;;;;27.22;53.21;101186.84;6104166;23;20100;-82
2023/08/16 01:05:15;;;;;;;28.38;21.00;;;;;;;27.29;53.55;101206.66;6140238;23;20890;-80
2023/08/16 01:07:42;;;;;;;28.15;22.20;;;;;;;27.45;53.21;101238.69;6113571;23;20235;-81
2023/08/16 01:10:09;;;;;;;28.92;22.13;;;;;;;27.28;53.90;101216.72;6109943;23;20104;-79
2023/08/16 01:12:49;;;;;;;28.77;21.55;;;;;;;27.64;53.64;101263.97;6130458;23;20679;-81
2023/08/16 01:15:22;;;;;;;26.20;21.95;;;;;;;27.56;53.66;101260.78;6133942;23;20429;-80
2023/08/16 01:17:53;;;;;;;27.98;22.27;;;;;;;27.45;54.19;101265.97;6144131;23;20357;-81
2023/08/16 01:20:21;;;;;;;36.03;22.08;;;;;;;27.21;54.51;101226.03;6123463;23;20386;-80
2023/08/16 01:23:05;;;;;;;29.67;22.58;;;;;;;27.44;54.70;101263.47;6125546;23;20321;-79
2023/08/16 01:26:00;;;;;;;34.53;23.13;;;;;;;27.19;54.95;101230.91;6128260;23;20021;-81
2023/08/16 01:28:29;;;;;;;25.98;23.15;;;;;;;27.27;54.95;101249.66;6132090;23;20414;-82
2023/08/16 01:31:02;;;;;;;29.73;22.25;;;;;;;27.40;54.65;101263.06;6148663;23;20185;-81
2023/08/16 01:33:28;;;;;;;34.33;22.73;;;;;;;27.26;54.79;101248.00;6116805;23;20345;-80
2023/08/16 01:35:55;;;;;;;25.33;22.58;;;;;;;27.26;54.93;101242.56;6116406;23;20048;-81
2023/08/16 01:38:23;;;;;;;30.23;23.17;;;;;;;27.42;55.04;101263.69;6150987;23;20021;-80
2023/08/16 01:41:02;;;;;;;25.48;22.48;;;;;;;27.43;55.19;101262.63;6137491;23;20021;-80
2023/08/16 01:43:31;;;;;;;29.08;22.67;;;;;;;26.80;55.37;101163.09;6146373;23;20032;-81
2023/08/16 01:45:59;;;;;;;28.50;23.80;;;;;;;27.31;55.53;101248.13;6112774;23;20345;-80
2023/08/16 01:48:27;;;;;;;43.95;25.08;;;;;;;27.33;55.59;101261.50;6123944;23;20462;-80
2023/08/16 01:50:54;;;;;;;26.10;22.95;;;;;;;27.10;55.59;101218.63;6114793;23;20024;-81
2023/08/16 01:53:25;;;;;;;;;;;;;;;27.26;55.63;101251.56;6143127;23;20024;-81
2023/08/16 01:55:52;;;;;;;30.92;24.58;;;;;;;27.27;55.45;101246.94;6107834;23;19920;-79
2023/08/16 01:58:20;;;;;;;28.77;22.77;;;;;;;27.13;55.68;101229.88;6114830;23;20176;-80
2023/08/16 02:00:50;;;;;;;25.98;23.20;;;;;;;27.22;55.94;101255.78;6108314;23;20225;-81
2023/08/16 02:03:16;;;;;;;27.50;22.85;;;;;;;27.19;55.98;101247.25;6176034;23;20020;-80
2023/08/16 02:05:44;;;;;;;28.17;23.83;;;;;;;27.16;55.99;101242.22;6170268;23;20385;-80
2023/08/16 02:08:14;;;;;;;26.42;23.58;;;;;;;27.15;56.02;101240.56;6164809;23;20021;-82
2023/08/16 02:10:41;;;;;;;26.70;22.87;;;;;;;27.10;56.12;101229.53;6160563;23;20032;-80
2023/08/16 02:13:07;;;;;;;26.20;22.92;;;;;;;27.11;56.14;101236.63;6150265;23;20268;-81
2023/08/16 02:15:39;;;;;;;25.63;22.50;;;;;;;27.13;56.22;101239.97;6154845;23;20474;-81
2023/08/16 02:18:10;;;;;;;26.02;23.40;;;;;;;27.05;56.28;101228.31;6167839;23;20112;-82
2023/08/16 02:20:40;;;;;;;33.55;22.83;;;;;;;26.90;56.33;101208.84;6166593;23;20042;-80
2023/08/16 02:23:08;;;;;;;24.63;21.70;;;;;;;26.93;56.40;101224.72;6161676;23;20099;-82
2023/08/16 02:25:41;;;;;;;26.60;21.98;;;;;;;26.70;56.56;101183.75;6135262;23;20020;-82
2023/08/16 02:28:10;;;;;;;25.48;21.38;;;;;;;27.04;56.18;101236.72;6135782;23;20055;-82
2023/08/16 02:30:37;;;;;;;27.08;20.38;;;;;;;26.98;56.22;101221.31;6141495;23;20266;-81
2023/08/16 02:33:04;;;;;;;25.85;20.08;;;;;;;27.02;56.70;101236.97;6154248;23;20090;-80
2023/08/16 02:35:31;;;;;;;23.70;19.90;;;;;;;26.47;56.63;101155.31;6173591;23;20020;-80
2023/08/16 02:37:58;;;;;;;24.48;19.65;;;;;;;26.99;56.64;101228.41;6152086;23;20770;-81
2023/08/16 02:40:25;;;;;;;24.52;20.42;;;;;;;26.99;56.57;101234.72;6164470;23;20464;-80
2023/08/16 02:42:52;;;;;;;23.15;19.90;;;;;;;27.11;56.55;101247.53;6155339;23;20380;-82
2023/08/16 02:45:20;;;;;;;27.02;21.75;;;;;;;27.00;56.42;101230.09;6158988;23;20023;-80
2023/08/16 02:47:47;;;;;;;26.17;22.58;;;;;;;27.07;56.34;101228.94;6131669;23;20021;-82
2023/08/16 02:50:18;;;;;;;23.33;20.92;;;;;;;27.18;56.20;101238.19;6107712;23;20024;-81
2023/08/16 02:52:50;;;;;;;22.55;19.50;;;;;;;27.19;55.90;101222.72;6157263;23;20337;-81
2023/08/16 02:55:17;;;;;;;23.38;20.98;;;;;;;27.15;56.52;101229.66;6132455;23;20282;-81
2023/08/16 02:57:48;;;;;;;22.55;20.15;;;;;;;26.91;56.94;101199.59;6135957;23;20328;-81
2023/08/16 03:00:15;;;;;;;25.85;19.08;;;;;;;26.45;57.01;101138.38;6157526;23;20527;-82
2023/08/16 03:02:42;;;;;;;22.48;20.02;;;;;;;26.47;57.47;101157.22;6124917;23;20025;-79
2023/08/16 03:05:14;;;;;;;21.98;19.05;;;;;;;26.87;57.79;101220.22;6138964;23;20256;-82
2023/08/16 03:07:48;;;;;;;20.33;18.20;;;;;;;26.77;57.41;101222.63;6125098;23;20028;-82
2023/08/16 03:10:23;;;;;;;20.35;18.10;;;;;;;26.78;57.76;101224.31;6114816;23;20343;-84
2023/08/16 03:12:50;;;;;;;21.23;18.95;;;;;;;26.79;57.77;101234.13;6145496;23;20419;-81
2023/08/16 03:15:20;;;;;;;20.60;17.75;;;;;;;26.52;57.86;101193.56;6195414;23;20230;-81
2023/08/16 03:17:49;;;;;;;25.25;17.83;;;;;;;26.73;57.52;101224.97;6192927;23;20075;-81
2023/08/16 03:20:15;;;;;;;20.77;18.38;;;;;;;26.59;57.50;101197.06;6182890;23;20024;-79
2023/08/16 03:22:42;;;;;;;19.83;17.75;;;;;;;26.57;57.39;101198.38;6135359;23;20345;-80
2023/08/16 03:25:09;;;;;;;20.80;17.02;;;;;;;26.71;57.88;101234.44;6178400;23;20464;-82
2023/08/16 03:27:36;;;;;;;20.85;18.70;;;;;;;26.67;57.57;101225.88;6180110;23;20333;-80
2023/08/16 03:30:05;;;;;;;21.95;18.02;;;;;;;26.61;57.73;101233.09;6169638;23;20387;-81
2023/08/16 03:32:32;;;;;;;22.73;17.55;;;;;;;26.27;58.26;101180.06;6175636;23;20341;-80
2023/08/16 03:34:58;;;;;;;21.92;18.13;;;;;;;26.66;58.28;101246.03;6118000;23;20016;-80
2023/08/16 03:37:25;;;;;;;20.75;18.52;;;;;;;26.60;58.35;101239.59;6162421;23;20016;-79
2023/08/16 03:39:52;;;;;;;20.85;18.65;;;;;;;26.57;58.11;101240.03;6166594;23;20420;-81
2023/08/16 03:42:21;;;;;;;22.17;18.13;;;;;;;26.41;58.40;101221.56;6131799;23;20027;-82
2023/08/16 03:44:48;;;;;;;20.30;18.23;;;;;;;26.30;58.33;101214.97;6140165;23;20107;-81
2023/08/16 03:47:15;;;;;;;20.85;17.50;;;;;;;26.31;58.73;101222.09;6133136;23;20035;-80
2023/08/16 03:49:44;;;;;;;21.02;18.77;;;;;;;26.37;58.99;101231.25;6136675;23;20074;-82
2023/08/16 03:52:11;;;;;;;22.00;18.45;;;;;;;25.90;58.88;101171.00;6136693;23;20555;-81
2023/08/16 03:54:40;;;;;;;20.67;18.52;;;;;;;26.38;59.37;101249.22;6121830;23;20255;-81
2023/08/16 03:57:07;;;;;;;31.13;20.17;;;;;;;26.43;59.12;101262.97;6132027;23;20082;-80
2023/08/16 03:59:33;;;;;;;24.20;21.33;;;;;;;26.37;59.23;101247.56;6153188;23;20019;-80
2023/08/16 04:02:01;;;;;;;22.45;20.05;;;;;;;26.07;59.21;101193.88;6147657;23;20471;-82
2023/08/16 04:04:28;;;;;;;23.30;21.00;;;;;;;26.33;59.30;101246.34;6152794;23;20031;-80
2023/08/16 04:06:55;;;;;;;32.17;21.17;;;;;;;26.23;59.44;101236.81;6185767;23;20024;-80
2023/08/16 04:09:22;;;;;;;39.80;22.17;;;;;;;26.05;59.55;101217.75;6111686;23;20288;-81
2023/08/16 04:11:53;;;;;;;25.65;21.15;;;;;;;26.17;59.80;101240.44;6111327;23;20281;-82
2023/08/16 04:14:31;;;;;;;23.85;20.67;;;;;;;25.99;60.04;101221.34;6153658;23;20013;-81
2023/08/16 04:16:58;;;;;;;23.88;21.08;;;;;;;26.25;60.09;101265.69;6167038;23;20020;-80
2023/08/16 04:19:25;;;;;;;27.98;22.02;;;;;;;26.06;60.00;101246.59;6159732;23;20013;-82
2023/08/16 04:21:54;;;;;;;24.17;19.88;;;;;;;25.82;60.03;101228.38;6138388;23;20055;-83
2023/08/16 04:24:23;;;;;;;23.05;19.45;;;;;;;26.03;60.43;101276.16;6150531;23;20024;-82
2023/08/16 04:26:50;;;;;;;21.23;18.95;;;;;;;25.94;60.11;101253.84;6172602;23;20194;-82
2023/08/16 04:29:18;;;;;;;31.25;19.95;;;;;;;26.09;60.42;101276.09;6134105;23;20063;-82
2023/08/16 04:31:45;;;;;;;20.63;18.52;;;;;;;25.93;60.27;101246.75;6134505;23;20020;-81
2023/08/16 04:34:18;;;;;;;21.17;18.23;;;;;;;26.20;59.46;101286.25;6188183;23;20012;-80
2023/08/16 04:36:45;;;;;;;21.23;17.55;;;;;;;26.22;59.62;101284.13;6148312;23;20575;-82
2023/08/16 04:39:13;;;;;;;23.77;17.98;;;;;;;26.25;59.39;101292.91;6185599;23;20039;-81
2023/08/16 04:41:43;;;;;;;20.25;17.13;;;;;;;25.94;59.01;101232.91;6178507;23;20088;-82
2023/08/16 04:44:16;;;;;;;23.45;18.08;;;;;;;26.06;59.02;101260.22;6135460;23;20032;-81
2023/08/16 04:46:48;;;;;;;19.23;17.23;;;;;;;25.57;59.05;101183.00;6113057;23;20020;-83
2023/08/16 04:49:20;;;;;;;28.20;17.63;;;;;;;25.82;59.33;101222.94;6144392;23;20528;-81
2023/08/16 04:51:47;;;;;;;26.38;17.48;;;;;;;25.71;59.27;101210.91;6152143;23;20100;-80
2023/08/16 04:54:13;;;;;;;19.83;17.52;;;;;;;25.90;59.21;101236.28;6145256;23;20062;-82
2023/08/16 04:56:40;;;;;;;24.05;17.70;;;;;;;26.40;59.28;101307.00;6155451;23;20031;-81
2023/08/16 04:59:10;;;;;;;18.90;16.65;;;;;;;26.55;58.33;101304.78;6193340;23;20024;-81
2023/08/16 05:01:42;;;;;;;26.08;17.60;;;;;;;26.53;58.11;101298.75;6144614;23;20032;-83
2023/08/16 05:04:09;;;;;;;19.58;17.67;;;;;;;26.56;57.99;101292.84;6149957;23;20028;-81
2023/08/16 05:06:36;;;;;;;23.27;18.38;;;;;;;26.44;58.10;101256.50;6164325;23;20116;-80
2023/08/16 05:09:04;;;;;;;20.45;18.20;;;;;;;26.58;58.26;101307.06;6136131;23;20319;-81
2023/08/16 05:11:31;;;;;;;23.55;18.58;;;;;;;26.38;58.35;101280.00;6157105;23;20024;-81
2023/08/16 05:13:58;;;;;;;25.98;17.42;;;;;;;26.44;58.56;101300.88;6091481;23;20497;-78
2023/08/16 05:16:25;;;;;;;20.75;18.23;;;;;;;26.39;58.23;101284.41;6090549;23;20484;-80
2023/08/16 05:18:57;;;;;;;19.95;17.92;;;;;;;26.62;58.30;101321.88;6121507;23;20021;-80
2023/08/16 05:21:24;;;;;;;21.42;18.38;;;;;;;25.89;58.53;101207.44;6159677;23;20013;-81
2023/08/16 05:23:52;;;;;;;23.15;17.13;;;;;;;26.53;58.26;101306.91;6135066;23;20028;-80
2023/08/16 05:26:22;;;;;;;;;;;;;;;26.70;57.86;101322.63;6139775;23;20021;-79
2023/08/16 05:28:49;;;;;;;19.70;17.55;;;;;;;26.71;58.24;101316.97;6145364;23;20333;-81
2023/08/16 05:31:16;;;;;;;21.83;18.98;;;;;;;26.71;58.45;101318.88;6138096;23;20025;-79
2023/08/16 05:33:42;;;;;;;21.70;19.40;;;;;;;26.62;58.32;101289.19;6134408;23;20017;-80
2023/08/16 05:36:12;;;;;;;24.83;17.85;;;;;;;26.77;58.32;101309.78;6138374;23;20017;-79
2023/08/16 05:38:39;;;;;;;28.50;19.15;;;;;;;26.70;58.60;101304.44;6118798;23;20028;-80
2023/08/16 05:41:08;;;;;;;19.85;17.48;;;;;;;26.78;58.47;101315.00;6155320;23;20028;-78
2023/08/16 05:43:35;;;;;;;20.27;18.35;;;;;;;26.90;58.36;101319.72;6118232;23;20516;-79
2023/08/16 05:46:05;;;;;;;20.23;18.17;;;;;;;27.17;57.20;101320.22;6165090;23;20021;-79
2023/08/16 05:48:32;;;;;;;20.80;18.60;;;;;;;26.98;57.60;101298.41;6102014;23;20021;-79
2023/08/16 05:50:58;;;;;;;25.52;18.77;;;;;;;26.90;57.94;101296.00;6112195;23;20025;-80
2023/08/16 05:53:25;;;;;;;20.63;18.42;;;;;;;26.54;57.77;101232.31;6124676;23;20273;-79
2023/08/16 05:55:52;;;;;;;21.27;18.88;;;;;;;27.15;57.80;101325.06;6161195;23;20050;-80
2023/08/16 05:58:21;;;;;;;19.90;17.65;;;;;;;27.10;57.73;101316.75;6125883;23;20501;-82
2023/08/16 06:00:48;;;;;;;25.65;18.98;;;;;;;27.31;57.69;101335.38;6114740;23;20354;-80
2023/08/16 06:03:15;;;;;;;21.75;18.02;;;;;;;27.31;57.42;101324.47;6124971;23;20023;-81
2023/08/16 06:05:43;;;;;;;25.27;18.75;;;;;;;27.24;57.47;101312.81;6161495;23;20028;-80
2023/08/16 06:08:09;;;;;;;20.88;18.10;;;;;;;27.35;56.17;101309.28;6137324;23;20103;-80
2023/08/16 06:10:36;;;;;;;20.85;18.15;;;;;;;27.08;56.49;101259.72;6133426;23;20393;-80
2023/08/16 06:13:03;;;;;;;23.65;17.48;;;;;;;27.49;56.59;101323.56;6146632;23;20025;-81
2023/08/16 06:15:30;;;;;;;21.63;17.40;;;;;;;27.66;55.95;101337.38;6125107;23;20048;-81
2023/08/16 06:17:57;;;;;;;21.00;17.77;;;;;;;27.51;55.75;101307.81;6128630;23;20214;-80
2023/08/16 06:20:24;;;;;;;24.40;17.77;;;;;;;27.55;55.90;101322.66;6139969;23;20517;-82
2023/08/16 06:22:54;;;;;;;20.58;18.48;;;;;;;27.46;56.17;101316.69;6125368;23;20385;-83
2023/08/16 06:25:21;;;;;;;24.13;17.95;;;;;;;26.93;56.12;101230.16;6142727;23;20100;-82
2023/08/16 06:27:48;;;;;;;20.65;18.67;;;;;;;27.32;55.48;101274.31;6095878;23;20028;-81
2023/08/16 06:30:15;;;;;;;20.52;17.55;;;;;;;26.88;55.85;101212.88;6117558;23;20438;-81
2023/08/16 06:32:43;;;;;;;20.30;17.90;;;;;;;27.72;56.21;101355.56;6137680;23;20236;-78
2023/08/16 06:35:10;;;;;;;21.58;17.50;;;;;;;27.75;56.55;101355.09;6139914;23;20021;-83
2023/08/16 06:37:39;;;;;;;26.20;17.75;;;;;;;27.69;55.80;101335.00;6153944;23;20021;-80
2023/08/16 06:40:06;;;;;;;20.83;17.73;;;;;;;27.78;55.47;101331.97;6120263;23;20072;-81
2023/08/16 06:42:34;;;;;;;20.80;16.88;;;;;;;27.80;55.46;101340.75;6125203;23;20029;-83
2023/08/16 06:45:04;;;;;;;20.65;17.63;;;;;;;27.94;54.98;101352.31;6143884;23;20020;-83
2023/08/16 06:47:30;;;;;;;19.60;17.02;;;;;;;28.03;54.75;101364.56;6113407;23;20573;-80
2023/08/16 06:49:57;;;;;;;19.88;16.92;;;;;;;28.03;54.27;101348.19;6118002;23;20069;-81
2023/08/16 06:52:27;;;;;;;19.40;17.38;;;;;;;28.11;54.04;101350.59;6123910;23;20017;-83
2023/08/16 06:54:53;;;;;;;18.65;16.73;;;;;;;28.15;54.11;101354.50;6133249;23;20338;-81
2023/08/16 06:57:21;;;;;;;19.48;17.40;;;;;;;27.92;54.32;101315.19;6115106;23;20021;-82
2023/08/16 06:59:48;;;;;;;21.88;17.95;;;;;;;28.23;54.11;101354.16;6131511;23;20025;-80
2023/08/16 07:02:15;;;;;;;21.73;18.45;;;;;;;27.63;54.15;101256.03;6130959;23;20028;-81
2023/08/16 07:04:42;;;;;;;23.77;19.67;;;;;;;28.01;54.11;101323.03;6166222;23;20017;-80
2023/08/16 07:07:10;;;;;;;22.10;18.80;;;;;;;27.91;54.47;101301.78;6154421;23;20028;-80
2023/08/16 07:09:37;;;;;;;20.88;18.67;;;;;;;28.21;54.40;101355.47;6125045;23;20334;-80
2023/08/16 07:12:09;;;;;;;21.23;18.65;;;;;;;28.18;54.79;101351.31;6061021;23;20341;-82
2023/08/16 07:14:38;;;;;;;24.00;19.02;;;;;;;27.92;54.61;101307.00;6049567;23;20290;-81
2023/08/16 07:17:05;;;;;;;21.52;18.60;;;;;;;28.07;53.82;101316.63;6112667;23;20113;-80
2023/08/16 07:19:33;;;;;;;21.08;18.73;;;;;;;28.22;54.50;101347.03;6142281;23;20021;-80
2023/08/16 07:22:00;;;;;;;21.38;17.95;;;;;;;28.29;54.40;101347.75;6124436;23;20082;-80
2023/08/16 07:24:27;;;;;;;23.05;19.85;;;;;;;28.04;54.45;101304.28;6157958;23;20020;-80
2023/08/16 07:26:54;;;;;;;22.05;19.65;;;;;;;27.95;54.55;101297.50;6138644;23;20017;-80
2023/08/16 07:29:21;;;;;;;28.20;19.20;;;;;;;28.45;54.61;101359.91;6147853;23;20390;-82
2023/08/16 07:31:48;;;;;;;23.15;19.25;;;;;;;28.45;54.71;101362.63;6123017;23;20413;-79
2023/08/16 07:34:15;;;;;;;19.73;17.65;;;;;;;28.49;54.58;101361.06;6129995;23;20395;-79
2023/08/16 07:36:42;;;;;;;23.38;19.30;;;;;;;28.54;54.69;101376.75;6115384;23;20704;-78
2023/08/16 07:39:09;;;;;;;25.88;20.08;;;;;;;28.66;54.24;101357.63;6147063;23;20028;-78
2023/08/16 07:41:36;;;;;;;22.30;19.90;;;;;;;28.00;54.46;101272.25;6131379;23;20040;-77
2023/08/16 07:44:03;;;;;;;22.27;19.67;;;;;;;28.66;54.81;101363.91;6148400;23;20053;-79
2023/08/16 07:46:30;;;;;;;21.65;19.35;;;;;;;28.54;54.71;101349.44;6133563;23;20397;-79
2023/08/16 07:48:58;;;;;;;29.17;20.08;;;;;;;28.70;54.48;101353.34;6136710;23;20017;-80
2023/08/16 07:51:28;;;;;;;28.52;20.25;;;;;;;28.64;54.27;101348.84;6123550;23;20023;-80
2023/08/16 07:53:55;;;;;;;24.50;20.08;;;;;;;28.77;54.00;101371.28;6132281;23;20392;-79
2023/08/16 07:56:22;;;;;;;22.70;20.23;;;;;;;28.62;53.93;101351.81;6126368;23;20021;-81
2023/08/16 07:58:49;;;;;;;22.48;20.17;;;;;;;28.85;53.52;101374.72;6125701;23;20049;-81
2023/08/16 08:01:17;;;;;;;23.23;20.08;;;;;;;28.87;53.72;101370.69;6111855;23;20025;-78
2023/08/16 08:03:44;;;;;;;24.73;20.23;;;;;;;28.88;53.58;101363.31;6143271;23;20393;-80
2023/08/16 08:06:10;;;;;;;21.50;19.45;;;;;;;27.97;53.58;101234.53;6129998;23;20021;-80
2023/08/16 08:08:37;;;;;;;21.88;19.58;;;;;;;28.60;52.60;101329.38;6117489;23;20103;-79
2023/08/16 08:11:08;;;;;;;23.00;20.60;;;;;;;28.65;51.95;101334.94;6156179;23;20032;-81
2023/08/16 08:13:34;;;;;;;23.20;19.95;;;;;;;28.29;52.29;101265.84;6126609;23;20025;-79
2023/08/16 08:16:01;;;;;;;24.95;19.73;;;;;;;28.30;52.98;101269.38;6135094;23;20017;-79
2023/08/16 08:18:29;;;;;;;25.83;19.95;;;;;;;28.40;52.87;101266.06;6115890;23;20393;-81
2023/08/16 08:20:59;;;;;;;28.15;19.10;;;;;;;29.07;51.85;101367.56;6123109;23;20502;-81
2023/08/16 08:23:28;;;;;;;21.88;19.10;;;;;;;29.01;52.44;101349.41;6117864;23;20433;-80
2023/08/16 08:25:54;;;;;;;21.88;19.58;;;;;;;29.13;51.67;101352.97;6127519;23;20021;-79
2023/08/16 08:28:22;;;;;;;22.05;19.67;;;;;;;29.38;51.72;101376.41;6114770;23;20037;-81
2023/08/16 08:30:49;;;;;;;21.42;19.33;;;;;;;29.24;51.18;101342.22;6152390;23;20345;-79
2023/08/16 08:33:16;;;;;;;21.98;19.85;;;;;;;29.61;51.06;101373.59;6150297;23;20123;-81
2023/08/16 08:35:43;;;;;;;21.63;19.42;;;;;;;29.60;51.28;101362.88;6134228;23;20047;-80
2023/08/16 08:38:10;;;;;;;23.15;20.75;;;;;;;29.74;51.09;101368.94;6160392;23;20266;-79
2023/08/16 08:40:37;;;;;;;24.77;20.10;;;;;;;29.43;50.74;101323.72;6141963;23;20116;-79
2023/08/16 08:43:05;;;;;;;22.40;19.63;;;;;;;29.15;50.32;101274.28;6157386;23;20347;-79
2023/08/16 08:45:34;;;;;;;22.50;19.48;;;;;;;29.81;48.59;101366.88;6142982;23;20027;-79
2023/08/16 08:48:01;;;;;;;25.08;20.05;;;;;;;29.90;48.52;101379.06;6144805;23;20080;-79
2023/08/16 08:50:28;;;;;;;20.23;18.17;;;;;;;29.91;49.12;101367.03;6125291;23;20025;-81
2023/08/16 08:53:00;;;;;;;20.85;18.65;;;;;;;29.72;48.98;101330.03;6125634;23;20044;-79
2023/08/16 08:55:32;;;;;;;20.85;18.85;;;;;;;29.79;49.46;101341.66;6125575;23;20021;-82
2023/08/16 08:58:01;;;;;;;21.13;18.27;;;;;;;30.02;47.64;101373.50;6117675;23;20705;-81
2023/08/16 09:00:33;;;;;;;;;;;;;;;30.12;47.22;101386.53;6147388;23;20445;-80
2023/08/16 09:03:06;;;;;;;21.95;18.02;;;;;;;30.27;46.24;101367.69;6113307;23;19916;-81
2023/08/16 09:05:33;;;;;;;21.13;18.42;;;;;;;30.14;45.87;101354.28;6153242;23;20028;-81
2023/08/16 09:08:02;;;;;;;22.52;18.50;;;;;;;30.00;46.54;101320.91;6117172;23;20025;-80
2023/08/16 09:10:35;;;;;;;20.27;18.20;;;;;;;30.41;45.15;101373.63;6117839;23;20025;-81
2023/08/16 09:13:08;;;;;;;23.55;20.17;;;;;;;30.43;44.34;101364.06;6150683;23;20290;-79
2023/08/16 09:15:35;;;;;;;26.30;17.50;;;;;;;30.50;44.12;101372.13;6141110;23;20025;-81
2023/08/16 09:18:14;;;;;;;21.08;18.23;;;;;;;30.58;44.54;101373.59;6115330;23;20249;-80
2023/08/16 09:20:45;;;;;;;21.13;19.02;;;;;;;30.43;44.64;101323.00;6121790;23;20024;-79
2023/08/16 09:23:19;;;;;;;21.77;19.02;;;;;;;30.87;44.52;101361.44;6144177;23;20096;-81
2023/08/16 09:25:46;;;;;;;19.50;17.48;;;;;;;30.82;43.97;101344.91;6129887;23;20279;-80
2023/08/16 09:28:14;;;;;;;22.02;19.70;;;;;;;30.81;42.42;101351.47;6143013;23;20222;-80
2023/08/16 09:30:41;;;;;;;21.30;19.13;;;;;;;30.35;43.19;101270.56;6110909;23;20449;-80
2023/08/16 09:33:13;;;;;;;21.02;18.92;;;;;;;30.85;42.78;101338.09;6153188;23;20017;-80
2023/08/16 09:35:51;;;;;;;20.52;18.60;;;;;;;30.97;43.28;101340.72;6115730;23;20867;-81
2023/08/16 09:38:22;;;;;;;22.40;19.63;;;;;;;31.06;43.17;101344.69;6119328;23;20031;-81
2023/08/16 09:40:52;;;;;;;;;;;;;;;31.34;43.08;101359.25;6126809;23;20313;-82
2023/08/16 09:43:21;;;;;;;22.63;19.80;;;;;;;31.30;43.29;101331.53;6126006;23;20164;-80
2023/08/16 09:45:50;;;;;;;21.30;19.05;;;;;;;31.60;42.69;101328.28;6121853;23;20024;-83
2023/08/16 09:48:24;;;;;;;24.58;21.23;;;;;;;31.31;42.18;101272.84;6154440;23;20020;-81
2023/08/16 09:50:58;;;;;;;23.92;19.95;;;;;;;31.94;41.92;101347.28;6135622;23;20420;-83
2023/08/16 09:53:32;;;;;;;24.33;19.60;;;;;;;31.99;42.08;101350.09;6137299;23;20487;-81
2023/08/16 09:56:05;;;;;;;21.90;19.40;;;;;;;32.05;42.02;101353.72;6146878;23;20432;-83
2023/08/16 09:58:36;;;;;;;22.05;19.20;;;;;;;32.25;41.59;101348.38;6136812;23;20449;-82
2023/08/16 10:01:03;;;;;;;25.02;19.02;;;;;;;32.23;41.95;101327.75;6161737;23;20381;-82
2023/08/16 10:03:54;;;;;;;22.63;19.80;;;;;;;32.11;41.24;101290.34;6122377;23;20445;-82
2023/08/16 10:06:24;;;;;;;20.98;18.77;;;;;;;32.41;40.59;101313.59;6125414;23;20032;-83
2023/08/16 10:09:09;;;;;;;21.17;18.85;;;;;;;32.43;40.19;101305.94;6117878;23;20031;-83
2023/08/16 10:11:38;;;;;;;21.90;19.77;;;;;;;32.75;39.11;101346.25;6120170;23;20416;-82
2023/08/16 10:14:08;;;;;;;24.45;18.83;;;;;;;33.10;38.67;101351.09;6134618;23;20049;-81
2023/08/16 10:16:36;;;;;;;22.88;18.50;;;;;;;33.17;38.78;101331.59;6123163;23;20322;-81
2023/08/16 10:19:04;;;;;;;20.25;18.45;;;;;;;33.38;38.20;101347.06;6111426;23;20021;-83
2023/08/16 10:21:37;;;;;;;20.63;18.63;;;;;;;33.39;38.18;101331.38;6117721;23;20408;-83
2023/08/16 10:24:09;;;;;;;24.48;19.52;;;;;;;33.55;38.20;101343.25;6125919;23;20044;-82
2023/08/16 10:26:38;;;;;;;21.02;18.98;;;;;;;33.53;37.68;101306.91;6110387;23;20044;-84
2023/08/16 10:29:13;;;;;;;20.75;18.67;;;;;;;33.86;37.17;101344.13;6127215;23;20169;-82
2023/08/16 10:31:47;;;;;;;20.95;18.85;;;;;;;33.77;37.35;101318.25;6099311;23;20272;-82
2023/08/16 10:34:18;;;;;;;21.15;17.90;;;;;;;33.81;37.70;101316.59;6116372;23;20051;-81
2023/08/16 10:36:46;;;;;;;20.50;18.45;;;;;;;34.01;36.81;101324.03;6112444;23;20349;-83
2023/08/16 10:39:22;;;;;;;21.38;19.00;;;;;;;34.13;37.24;101327.38;6134324;23;20096;-82
2023/08/16 10:41:53;;;;;;;20.52;18.58;;;;;;;34.21;36.89;101318.53;6126656;23;20412;-82
2023/08/16 10:44:24;;;;;;;19.92;17.83;;;;;;;34.06;37.45;101285.47;6124778;23;20449;-81
2023/08/16 10:46:52;;;;;;;20.88;18.48;;;;;;;34.35;36.34;101285.72;6153083;23;20173;-82
2023/08/16 10:49:19;;;;;;;21.13;18.98;;;;;;;34.63;35.71;101324.81;6152746;23;20475;-81
2023/08/16 10:51:51;;;;;;;27.88;18.50;;;;;;;34.60;35.53;101286.78;6114624;23;20021;-82
2023/08/16 10:54:31;;;;;;;20.50;18.35;;;;;;;34.87;36.04;101303.75;6111268;23;20021;-81
2023/08/16 10:57:07;;;;;;;19.35;17.45;;;;;;;34.52;35.85;101223.91;6122868;23;20021;-83
2023/08/16 10:59:41;;;;;;;19.40;17.45;;;;;;;35.17;35.29;101307.47;6143028;23;20064;-81
2023/08/16 11:02:11;;;;;;;20.60;18.58;;;;;;;35.47;35.13;101312.00;6152692;23;20056;-81
2023/08/16 11:04:39;;;;;;;20.63;18.50;;;;;;;35.28;34.85;101253.06;6130957;23;20457;-82
2023/08/16 11:07:09;;;;;;;25.67;18.77;;;;;;;35.53;34.27;101266.66;6144341;23;20504;-82
2023/08/16 11:09:39;;;;;;;21.80;18.50;;;;;;;35.76;34.33;101308.50;6156310;23;20060;-83
2023/08/16 11:12:06;;;;;;;20.48;18.00;;;;;;;35.92;34.58;101301.69;6162920;23;20025;-82
2023/08/16 11:14:34;;;;;;;20.63;18.63;;;;;;;35.98;34.46;101288.69;6121762;23;20563;-83
2023/08/16 11:17:03;;;;;;;20.50;18.50;;;;;;;36.16;34.22;101306.47;6151544;23;20469;-82